Philadelphia, Pennsylvania
Traffic Map
Current Weather Conditions
Philadelphia, Pennsylvania
Few Clouds
Few Clouds

Feels Like: -4°
Wind Chill: -4° Ceiling: Unl
Heat Index: Visibility: 10mi
Dew Point: -14° Wind: 20mph
Humidity: 30% Direction: 300° (WNW)
Pressure: 30.38in Gusts: 26mph
Raw Report DataKPHL 211754Z 30017G23KT 10SM FEW065 02/M14 A3038 RMK AO2 SLP285 T00221139 10022 21022 53001 $
Traffic Incident Summary
Active as of:
Severity:
Category:
InformationThere was an issue retrieving the traffic information for this location. Please try a different location or try again shortly.
Advertisements
Track Severe Weather on mobile